Terminal Aerodrome Forecast
Issued by NWS Omaha/Valley, NE

Home | Current Version | Previous Version | Graphics & Text | Print | Product List | Glossary On
Versions: 1 2 3 4 5 6 7 8 9 10 11 12 13 14 15 16 17 18 19 20 21 22 23 24 25 26 27 28 29 30 31 32 33 34 35 36
000
FTUS43 KOAX 261247 AAA
TAFOFK
TAF AMD
KOFK 261247Z 2613/2712 02006KT P6SM -SHRA OVC080
     FM261500 06009KT P6SM BKN120
     FM262100 10009KT P6SM OVC060
     FM270300 12008KT 6SM -SHRA BR OVC040
      TEMPO 2705/2709 3SM TSRA BR OVC025CB=

USA.gov is the U.S. government's official web portal to all federal, state and local government web resources and services.